createdAt,value
2017-09-28T02:24:17.145Z,50.37
2017-09-28T02:26:45.242Z,50.38
2017-09-28T02:29:12.652Z,50.31
2017-09-28T02:31:40.923Z,50.36
2017-09-28T02:34:08.204Z,50.42
2017-09-28T02:36:35.443Z,50.34
2017-09-28T02:39:02.803Z,50.47
2017-09-28T04:34:59.772Z,49.48
2017-09-28T04:37:27.019Z,49.57
2017-09-28T04:39:54.357Z,49.65
2017-09-28T04:42:21.653Z,49.74
2017-09-28T04:44:49.012Z,49.74
2017-09-28T05:28:39.316Z,49.90
2017-09-28T05:33:48.193Z,49.14
2017-09-28T05:36:15.549Z,48.91
2017-09-28T05:39:03.759Z,48.90
2017-09-28T05:49:41.059Z,48.70
2017-09-28T05:52:08.469Z,48.64
2017-09-28T07:17:46.694Z,48.63
2017-09-28T07:20:14.887Z,48.13
2017-09-28T07:22:42.436Z,47.98
2017-09-28T07:25:10.199Z,48.50
2017-09-28T07:32:49.348Z,48.17
2017-09-28T07:35:17.432Z,48.50
2017-09-28T07:45:45.754Z,48.08
2017-09-28T07:48:17.875Z,48.28
2017-09-28T08:12:32.612Z,47.35
2017-09-28T09:06:15.184Z,46.99
2017-09-28T09:16:43.613Z,46.96
2017-09-28T09:32:02.598Z,46.95
2017-09-28T09:44:46.990Z,46.48
2017-09-28T09:47:15.620Z,46.67
2017-09-28T10:00:05.893Z,46.17
2017-09-28T10:07:52.704Z,46.16
2017-09-28T10:10:20.265Z,45.99
2017-09-28T10:12:47.870Z,45.89
2017-09-28T10:15:18.580Z,45.78
2017-09-28T10:17:47.617Z,45.84
2017-09-28T10:20:15.418Z,45.69
2017-09-28T10:22:46.042Z,45.49
2017-09-28T10:25:13.643Z,45.42
2017-09-28T10:30:14.016Z,45.22
2017-09-28T10:32:42.212Z,45.31
2017-09-28T10:35:09.923Z,45.08
2017-09-28T10:37:37.539Z,45.19
2017-09-28T10:40:04.831Z,45.40
2017-09-28T10:42:34.993Z,44.89
2017-09-28T10:45:03.894Z,45.15
2017-09-28T10:47:31.340Z,45.21
2017-09-28T10:49:58.736Z,45.07
2017-09-28T10:52:26.453Z,44.97
2017-09-28T10:57:34.959Z,45.10
2017-09-28T11:00:04.094Z,45.28
2017-09-28T11:02:31.385Z,45.42
2017-09-28T11:04:58.843Z,45.27
2017-09-28T11:07:27.487Z,45.15
2017-09-28T11:09:54.748Z,45.38
2017-09-28T11:14:53.183Z,45.31
2017-09-28T11:17:21.135Z,45.14
2017-09-28T11:19:50.127Z,45.03
2017-09-28T11:22:22.772Z,44.96
2017-09-28T11:24:50.007Z,45.07
2017-09-28T11:27:17.591Z,45.16
2017-09-28T11:29:45.405Z,45.33
2017-09-28T11:32:13.345Z,45.20
2017-09-28T11:34:40.832Z,45.13
2017-09-28T11:42:24.094Z,45.34
2017-09-28T11:47:31.669Z,45.40
2017-09-28T11:50:00.301Z,45.21
2017-09-28T11:55:00.593Z,45.59
2017-09-28T11:57:28.073Z,45.19
2017-09-28T12:02:28.681Z,45.14
2017-09-28T12:04:57.511Z,44.78
2017-09-28T12:07:24.899Z,44.53
2017-09-28T12:12:29.308Z,44.52
2017-09-28T12:14:58.940Z,44.47
2017-09-28T12:17:30.388Z,44.62
2017-09-28T12:19:58.712Z,44.40
2017-09-28T12:22:26.038Z,44.45
2017-09-28T12:24:53.354Z,44.35
2017-09-28T12:27:20.725Z,44.33
2017-09-28T12:29:48.428Z,44.31
2017-09-28T12:32:17.954Z,44.25
2017-09-28T12:34:48.097Z,44.36
2017-09-28T12:37:15.654Z,44.43
2017-09-28T12:39:43.507Z,44.27
2017-09-28T12:42:11.100Z,44.34
2017-09-28T12:44:38.747Z,44.29
2017-09-28T12:47:06.314Z,44.28
2017-09-28T12:49:36.989Z,44.46
2017-09-28T12:52:04.594Z,44.32
2017-09-28T12:54:38.401Z,44.40
2017-09-28T12:59:43.975Z,44.44
2017-09-28T13:04:55.051Z,44.45
2017-09-28T13:09:57.655Z,45.16
2017-09-28T13:20:06.337Z,45.59
2017-09-28T13:22:37.330Z,45.62
2017-09-28T13:59:29.266Z,45.60
2017-09-28T14:04:30.671Z,45.53
2017-09-28T14:17:09.427Z,45.79
2017-09-28T14:19:38.745Z,45.46
2017-09-28T14:32:19.555Z,45.75
2017-09-28T14:34:46.847Z,45.63
2017-09-28T14:45:00.334Z,45.47
2017-09-28T14:47:28.595Z,45.47
2017-09-28T15:02:48.464Z,45.64
2017-09-28T15:05:15.936Z,45.76
2017-09-28T15:07:43.525Z,45.61
2017-09-28T15:10:11.770Z,45.38
2017-09-28T15:12:39.061Z,45.65
2017-09-28T15:15:07.273Z,45.88
2017-09-28T15:17:34.643Z,45.64
2017-09-28T15:20:01.987Z,45.39
2017-09-28T15:22:29.855Z,45.73
2017-09-28T15:24:57.196Z,45.87
2017-09-28T15:27:24.805Z,45.80
2017-09-28T15:29:52.086Z,45.56
2017-09-28T15:32:19.384Z,45.34
2017-09-28T15:34:46.739Z,45.75
2017-09-28T15:37:14.056Z,45.84
2017-09-28T15:39:41.325Z,45.67
2017-09-28T15:42:08.647Z,45.70
2017-09-28T15:44:36.546Z,45.67
2017-09-28T15:54:42.121Z,45.79
2017-09-28T15:57:11.366Z,45.68
2017-09-28T15:59:38.702Z,45.71
2017-09-28T16:02:06.036Z,45.81
2017-09-28T16:04:33.331Z,45.94
2017-09-28T16:07:00.614Z,45.73
2017-09-28T16:09:33.391Z,45.82
2017-09-28T16:12:03.855Z,45.81
2017-09-28T16:14:31.096Z,45.16
2017-09-28T16:16:58.331Z,44.77
2017-09-28T16:19:25.583Z,44.70
2017-09-28T16:21:52.816Z,44.48
2017-09-28T16:24:20.087Z,44.53
2017-09-28T16:26:47.663Z,44.46
2017-09-28T16:29:14.902Z,44.46
2017-09-28T16:31:42.169Z,44.41
2017-09-28T16:34:09.422Z,44.28
2017-09-28T16:36:36.668Z,44.41
2017-09-28T16:39:03.947Z,44.37
2017-09-28T16:41:31.261Z,44.36
2017-09-28T16:43:59.182Z,44.34
2017-09-28T16:46:26.535Z,44.41
2017-09-28T16:48:53.776Z,44.40
2017-09-28T16:51:21.077Z,44.52
2017-09-28T16:53:48.388Z,44.56
2017-09-28T16:56:15.538Z,44.67
2017-09-28T16:58:42.873Z,44.65
2017-09-28T17:01:10.129Z,44.72
2017-09-28T17:03:37.383Z,44.72
2017-09-28T17:06:04.667Z,44.74
2017-09-28T17:08:31.988Z,44.69
2017-09-28T17:10:59.268Z,44.63
2017-09-28T17:13:26.483Z,44.67
2017-09-28T17:15:53.709Z,44.64
2017-09-28T17:18:20.907Z,44.59
2017-09-28T17:20:48.182Z,44.47
2017-09-28T17:23:15.434Z,44.59
2017-09-28T17:25:42.715Z,44.34
2017-09-28T17:28:09.938Z,44.35
2017-09-28T17:30:37.230Z,44.31
2017-09-28T17:33:05.685Z,44.25
2017-09-28T17:35:32.931Z,44.22
2017-09-28T17:38:00.177Z,44.19
2017-09-28T17:40:32.420Z,44.20
2017-09-28T17:43:00.526Z,44.21
2017-09-28T17:45:27.830Z,44.18
2017-09-28T17:47:55.048Z,44.24
2017-09-28T17:50:22.304Z,44.23
2017-09-28T18:05:33.201Z,44.12
2017-09-28T18:08:00.442Z,44.07
2017-09-28T18:10:27.646Z,44.10
2017-09-28T18:14:46.205Z,44.12
2017-09-28T18:17:14.433Z,44.11
2017-09-28T18:19:42.558Z,44.13
2017-09-28T18:22:09.880Z,44.17
2017-09-28T18:24:37.190Z,44.18
2017-09-28T18:27:04.378Z,44.23
2017-09-28T18:29:31.769Z,44.23
2017-09-28T18:31:58.989Z,44.28
2017-09-28T18:34:26.305Z,44.26
2017-09-28T18:36:53.505Z,44.27
2017-09-28T18:39:20.916Z,44.35
2017-09-28T18:41:48.115Z,44.32
2017-09-28T18:44:15.339Z,44.26
2017-09-28T18:46:42.610Z,44.29
2017-09-28T18:49:09.796Z,44.56
2017-09-28T18:51:37.084Z,44.53
2017-09-28T18:54:04.409Z,44.71
2017-09-28T18:56:31.781Z,44.85
2017-09-28T18:58:59.011Z,45.03
2017-09-28T19:04:00.403Z,45.31
2017-09-28T19:06:29.598Z,45.48
2017-09-28T19:08:57.326Z,45.57
2017-09-28T19:11:24.773Z,45.65
2017-09-28T19:13:52.057Z,45.77
2017-09-28T19:16:19.330Z,45.88
2017-09-28T19:18:46.607Z,45.98
2017-09-28T19:21:13.945Z,46.07
2017-09-28T19:23:41.188Z,46.16
2017-09-28T19:26:08.422Z,46.26
2017-09-28T19:28:35.816Z,46.31
2017-09-28T19:31:02.995Z,46.35
2017-09-28T19:33:30.200Z,46.44
2017-09-28T19:35:57.458Z,46.50
2017-09-28T19:38:24.695Z,46.57
2017-09-28T19:40:51.935Z,46.65
2017-09-28T19:43:19.172Z,46.67
2017-09-28T19:45:46.458Z,46.79
2017-09-28T19:48:21.592Z,46.82
2017-09-28T19:50:49.219Z,46.87
2017-09-28T19:53:17.104Z,46.94
2017-09-28T19:55:44.319Z,46.98
2017-09-28T19:58:11.579Z,47.01
2017-09-28T20:00:38.796Z,47.06
2017-09-28T20:03:06.160Z,47.10
2017-09-28T20:05:33.450Z,47.15
2017-09-28T20:08:00.701Z,47.20
2017-09-28T20:10:27.930Z,47.23
2017-09-28T20:12:55.824Z,47.24
2017-09-28T20:15:23.023Z,47.26
2017-09-28T20:17:50.258Z,47.31
2017-09-28T20:20:17.420Z,47.36
2017-09-28T20:22:44.596Z,47.37
2017-09-28T20:25:11.890Z,47.36
2017-09-28T20:27:39.877Z,47.40
2017-09-28T20:30:07.195Z,47.41
2017-09-28T20:32:34.462Z,47.44
2017-09-28T20:35:01.638Z,47.43
2017-09-28T20:37:28.870Z,47.48
2017-09-28T20:39:56.090Z,47.47
2017-09-28T20:42:23.383Z,47.46
2017-09-28T20:44:50.740Z,47.49
2017-09-28T20:47:17.958Z,47.51
2017-09-28T20:49:45.181Z,47.52
2017-09-28T20:52:12.395Z,47.53
2017-09-28T20:54:39.623Z,47.53
2017-09-28T20:57:06.873Z,47.58
2017-09-28T20:59:34.066Z,47.59
2017-09-28T21:02:01.335Z,47.60
2017-09-28T21:04:28.571Z,47.56
2017-09-28T21:06:55.809Z,47.57
2017-09-28T21:09:23.217Z,47.57
2017-09-28T21:11:50.419Z,47.62
2017-09-28T21:14:17.667Z,47.56
2017-09-28T21:16:44.880Z,47.57
2017-09-28T21:19:12.171Z,47.57
2017-09-28T21:21:39.359Z,47.53
2017-09-28T21:54:50.176Z,47.29
2017-09-28T21:57:19.187Z,47.26
2017-09-28T21:59:51.133Z,47.30
2017-09-28T22:02:19.172Z,47.24
2017-09-28T22:04:46.558Z,47.21
2017-09-28T22:07:13.900Z,47.19
2017-09-28T22:09:41.107Z,47.21
2017-09-28T22:12:08.394Z,47.18
2017-09-28T22:14:35.863Z,47.11
2017-09-28T22:17:03.138Z,47.08
2017-09-28T22:19:30.511Z,47.00
2017-09-28T22:21:57.808Z,46.98
2017-09-28T22:24:25.023Z,46.97
2017-09-28T22:26:52.262Z,46.93
2017-09-28T22:29:19.463Z,46.87
2017-09-28T22:31:46.639Z,46.89
2017-09-28T22:34:13.930Z,46.82
2017-09-28T22:36:41.320Z,46.75
2017-09-28T22:39:08.599Z,46.78
2017-09-28T22:41:35.803Z,46.74
2017-09-28T22:44:03.087Z,46.65
2017-09-28T22:46:31.560Z,46.65
2017-09-28T22:49:02.422Z,46.61
2017-09-28T22:51:29.938Z,46.65
2017-09-28T22:53:57.125Z,46.55
2017-09-28T22:56:24.275Z,46.55
2017-09-28T22:58:53.891Z,46.48
2017-09-28T23:01:21.879Z,46.47
2017-09-28T23:03:49.393Z,46.41
2017-09-28T23:06:19.897Z,46.37
2017-09-28T23:08:50.787Z,46.38
2017-09-28T23:11:19.983Z,46.30
2017-09-28T23:13:50.108Z,46.29
2017-09-28T23:16:21.550Z,46.28
2017-09-28T23:18:49.825Z,46.26
2017-09-28T23:21:17.306Z,46.23
2017-09-28T23:23:49.162Z,46.24
2017-09-28T23:26:16.454Z,46.21
2017-09-28T23:28:43.670Z,46.24
2017-09-28T23:31:10.851Z,46.23
2017-09-28T23:33:38.069Z,46.18
2017-09-28T23:36:05.338Z,46.21
2017-09-28T23:38:32.562Z,46.19
2017-09-28T23:41:02.213Z,46.23
2017-09-28T23:43:29.423Z,46.21
2017-09-28T23:45:56.618Z,46.21
2017-09-28T23:48:23.808Z,46.18
2017-09-28T23:50:51.062Z,46.21
2017-09-28T23:53:18.384Z,46.23
2017-09-28T23:55:45.589Z,46.21
2017-09-28T23:58:12.827Z,46.20
